sensor_id;sensor_type;location;lat;lon;timestamp;P1;durP1;ratioP1;P2;durP2;ratioP2
13067;SDS011;6600;51.362;6.686;2023-04-15T00:00:35;4.83;;;2.30;;
13067;SDS011;6600;51.362;6.686;2023-04-15T00:03:01;6.90;;;2.80;;
13067;SDS011;6600;51.362;6.686;2023-04-15T00:05:28;5.83;;;2.57;;
13067;SDS011;6600;51.362;6.686;2023-04-15T00:07:54;4.83;;;2.43;;
13067;SDS011;6600;51.362;6.686;2023-04-15T00:10:19;2.90;;;2.30;;
13067;SDS011;6600;51.362;6.686;2023-04-15T00:12:44;3.93;;;2.30;;
13067;SDS011;6600;51.362;6.686;2023-04-15T00:15:10;2.20;;;2.00;;
13067;SDS011;6600;51.362;6.686;2023-04-15T00:17:36;3.40;;;2.03;;
13067;SDS011;6600;51.362;6.686;2023-04-15T00:20:03;3.13;;;1.97;;
13067;SDS011;6600;51.362;6.686;2023-04-15T00:22:30;2.43;;;1.97;;
13067;SDS011;6600;51.362;6.686;2023-04-15T00:24:56;3.00;;;2.00;;
13067;SDS011;6600;51.362;6.686;2023-04-15T00:27:22;4.80;;;2.10;;
13067;SDS011;6600;51.362;6.686;2023-04-15T00:29:47;2.70;;;1.77;;
13067;SDS011;6600;51.362;6.686;2023-04-15T00:32:12;4.37;;;2.50;;
13067;SDS011;6600;51.362;6.686;2023-04-15T00:34:38;2.47;;;2.20;;
13067;SDS011;6600;51.362;6.686;2023-04-15T00:37:03;4.70;;;1.93;;
13067;SDS011;6600;51.362;6.686;2023-04-15T00:39:29;3.23;;;1.63;;
13067;SDS011;6600;51.362;6.686;2023-04-15T00:41:54;2.33;;;1.93;;
13067;SDS011;6600;51.362;6.686;2023-04-15T00:44:21;2.63;;;1.73;;
13067;SDS011;6600;51.362;6.686;2023-04-15T00:46:47;5.07;;;2.23;;
13067;SDS011;6600;51.362;6.686;2023-04-15T00:49:15;2.90;;;2.20;;
13067;SDS011;6600;51.362;6.686;2023-04-15T00:51:42;2.27;;;1.67;;
13067;SDS011;6600;51.362;6.686;2023-04-15T00:54:08;4.97;;;2.27;;
13067;SDS011;6600;51.362;6.686;2023-04-15T00:56:35;3.37;;;1.80;;
13067;SDS011;6600;51.362;6.686;2023-04-15T00:59:02;3.07;;;1.97;;
13067;SDS011;6600;51.362;6.686;2023-04-15T01:01:27;3.70;;;2.07;;
13067;SDS011;6600;51.362;6.686;2023-04-15T01:03:54;4.10;;;1.40;;
13067;SDS011;6600;51.362;6.686;2023-04-15T01:06:24;2.67;;;1.40;;
13067;SDS011;6600;51.362;6.686;2023-04-15T01:08:51;2.53;;;1.50;;
13067;SDS011;6600;51.362;6.686;2023-04-15T01:11:18;3.10;;;1.90;;
13067;SDS011;6600;51.362;6.686;2023-04-15T01:13:43;3.63;;;1.90;;
13067;SDS011;6600;51.362;6.686;2023-04-15T01:16:09;2.57;;;1.80;;
13067;SDS011;6600;51.362;6.686;2023-04-15T01:18:36;1.83;;;1.53;;
13067;SDS011;6600;51.362;6.686;2023-04-15T01:21:01;2.40;;;1.83;;
13067;SDS011;6600;51.362;6.686;2023-04-15T01:23:28;2.13;;;1.77;;
13067;SDS011;6600;51.362;6.686;2023-04-15T01:25:54;2.10;;;1.67;;
13067;SDS011;6600;51.362;6.686;2023-04-15T01:28:20;2.20;;;1.77;;
13067;SDS011;6600;51.362;6.686;2023-04-15T01:30:45;2.77;;;1.80;;
13067;SDS011;6600;51.362;6.686;2023-04-15T01:33:10;3.03;;;2.00;;
13067;SDS011;6600;51.362;6.686;2023-04-15T01:35:36;3.73;;;2.33;;
13067;SDS011;6600;51.362;6.686;2023-04-15T01:38:05;2.20;;;1.90;;
13067;SDS011;6600;51.362;6.686;2023-04-15T01:40:32;2.93;;;1.90;;
13067;SDS011;6600;51.362;6.686;2023-04-15T01:42:58;2.70;;;1.87;;
13067;SDS011;6600;51.362;6.686;2023-04-15T01:45:23;1.97;;;1.77;;
13067;SDS011;6600;51.362;6.686;2023-04-15T01:47:49;1.77;;;1.67;;
13067;SDS011;6600;51.362;6.686;2023-04-15T01:50:14;2.73;;;1.50;;
13067;SDS011;6600;51.362;6.686;2023-04-15T01:52:40;2.53;;;1.90;;
13067;SDS011;6600;51.362;6.686;2023-04-15T01:55:05;5.10;;;1.97;;
13067;SDS011;6600;51.362;6.686;2023-04-15T01:57:32;1.83;;;1.67;;
13067;SDS011;6600;51.362;6.686;2023-04-15T01:59:58;2.17;;;1.40;;
13067;SDS011;6600;51.362;6.686;2023-04-15T02:02:23;1.80;;;1.70;;
13067;SDS011;6600;51.362;6.686;2023-04-15T02:04:49;2.77;;;2.00;;
13067;SDS011;6600;51.362;6.686;2023-04-15T02:07:15;2.47;;;1.90;;
13067;SDS011;6600;51.362;6.686;2023-04-15T02:09:40;1.70;;;1.37;;
13067;SDS011;6600;51.362;6.686;2023-04-15T02:12:05;1.73;;;1.60;;
13067;SDS011;6600;51.362;6.686;2023-04-15T02:14:31;3.23;;;1.90;;
13067;SDS011;6600;51.362;6.686;2023-04-15T02:16:56;2.77;;;2.47;;
13067;SDS011;6600;51.362;6.686;2023-04-15T02:19:22;1.63;;;1.53;;
13067;SDS011;6600;51.362;6.686;2023-04-15T02:21:47;3.17;;;1.90;;
13067;SDS011;6600;51.362;6.686;2023-04-15T02:24:12;2.90;;;1.90;;
13067;SDS011;6600;51.362;6.686;2023-04-15T02:26:37;2.90;;;2.10;;
13067;SDS011;6600;51.362;6.686;2023-04-15T02:29:03;3.17;;;2.10;;
13067;SDS011;6600;51.362;6.686;2023-04-15T02:31:28;2.87;;;2.07;;
13067;SDS011;6600;51.362;6.686;2023-04-15T02:33:54;2.47;;;2.07;;
13067;SDS011;6600;51.362;6.686;2023-04-15T02:36:20;2.53;;;2.33;;
13067;SDS011;6600;51.362;6.686;2023-04-15T02:38:46;4.90;;;2.67;;
13067;SDS011;6600;51.362;6.686;2023-04-15T02:41:11;4.53;;;2.53;;
13067;SDS011;6600;51.362;6.686;2023-04-15T02:43:36;3.47;;;2.30;;
13067;SDS011;6600;51.362;6.686;2023-04-15T02:46:04;3.10;;;1.93;;
13067;SDS011;6600;51.362;6.686;2023-04-15T02:48:29;3.97;;;2.30;;
13067;SDS011;6600;51.362;6.686;2023-04-15T02:51:09;4.53;;;2.77;;
13067;SDS011;6600;51.362;6.686;2023-04-15T02:53:36;4.43;;;2.63;;
13067;SDS011;6600;51.362;6.686;2023-04-15T02:56:01;1.70;;;1.60;;
13067;SDS011;6600;51.362;6.686;2023-04-15T02:58:26;3.03;;;2.00;;
13067;SDS011;6600;51.362;6.686;2023-04-15T03:00:52;4.40;;;2.87;;
13067;SDS011;6600;51.362;6.686;2023-04-15T03:03:17;2.47;;;2.00;;
13067;SDS011;6600;51.362;6.686;2023-04-15T03:05:43;3.00;;;2.73;;
13067;SDS011;6600;51.362;6.686;2023-04-15T03:08:08;2.70;;;2.27;;
13067;SDS011;6600;51.362;6.686;2023-04-15T03:10:33;4.40;;;2.90;;
13067;SDS011;6600;51.362;6.686;2023-04-15T03:12:59;7.20;;;2.70;;
13067;SDS011;6600;51.362;6.686;2023-04-15T03:15:25;2.70;;;2.20;;
13067;SDS011;6600;51.362;6.686;2023-04-15T03:17:51;3.87;;;2.67;;
13067;SDS011;6600;51.362;6.686;2023-04-15T03:20:16;4.97;;;2.87;;
13067;SDS011;6600;51.362;6.686;2023-04-15T03:22:41;2.23;;;2.03;;
13067;SDS011;6600;51.362;6.686;2023-04-15T03:25:07;5.20;;;2.60;;
13067;SDS011;6600;51.362;6.686;2023-04-15T03:27:32;3.83;;;2.37;;
13067;SDS011;6600;51.362;6.686;2023-04-15T03:29:58;4.87;;;2.60;;
13067;SDS011;6600;51.362;6.686;2023-04-15T03:32:23;2.17;;;2.03;;
13067;SDS011;6600;51.362;6.686;2023-04-15T03:34:48;6.40;;;3.47;;
13067;SDS011;6600;51.362;6.686;2023-04-15T03:37:14;4.03;;;2.57;;
13067;SDS011;6600;51.362;6.686;2023-04-15T03:39:39;3.57;;;2.60;;
13067;SDS011;6600;51.362;6.686;2023-04-15T03:42:04;3.27;;;2.33;;
13067;SDS011;6600;51.362;6.686;2023-04-15T03:44:30;5.33;;;2.97;;
13067;SDS011;6600;51.362;6.686;2023-04-15T03:46:55;3.67;;;2.83;;
13067;SDS011;6600;51.362;6.686;2023-04-15T03:49:20;5.50;;;2.77;;
13067;SDS011;6600;51.362;6.686;2023-04-15T03:51:47;4.10;;;2.40;;
13067;SDS011;6600;51.362;6.686;2023-04-15T03:54:12;3.60;;;2.33;;
13067;SDS011;6600;51.362;6.686;2023-04-15T03:56:39;4.07;;;2.20;;
13067;SDS011;6600;51.362;6.686;2023-04-15T03:59:04;2.73;;;2.30;;
13067;SDS011;6600;51.362;6.686;2023-04-15T04:01:30;2.27;;;1.80;;
13067;SDS011;6600;51.362;6.686;2023-04-15T04:03:55;5.67;;;3.17;;
13067;SDS011;6600;51.362;6.686;2023-04-15T04:06:20;6.03;;;2.77;;
13067;SDS011;6600;51.362;6.686;2023-04-15T04:08:46;8.27;;;3.23;;
13067;SDS011;6600;51.362;6.686;2023-04-15T04:11:11;4.07;;;2.90;;
13067;SDS011;6600;51.362;6.686;2023-04-15T04:13:36;5.53;;;2.73;;
13067;SDS011;6600;51.362;6.686;2023-04-15T04:16:02;4.47;;;3.30;;
13067;SDS011;6600;51.362;6.686;2023-04-15T04:18:28;5.60;;;2.70;;
13067;SDS011;6600;51.362;6.686;2023-04-15T04:20:55;3.10;;;2.50;;
13067;SDS011;6600;51.362;6.686;2023-04-15T04:23:20;4.63;;;3.10;;
13067;SDS011;6600;51.362;6.686;2023-04-15T04:25:46;5.53;;;2.90;;
13067;SDS011;6600;51.362;6.686;2023-04-15T04:28:11;6.10;;;2.83;;
13067;SDS011;6600;51.362;6.686;2023-04-15T04:30:36;3.50;;;2.30;;
13067;SDS011;6600;51.362;6.686;2023-04-15T04:33:02;4.70;;;3.37;;
13067;SDS011;6600;51.362;6.686;2023-04-15T04:35:27;7.90;;;3.20;;
13067;SDS011;6600;51.362;6.686;2023-04-15T04:37:53;3.60;;;2.90;;
13067;SDS011;6600;51.362;6.686;2023-04-15T04:40:18;6.63;;;2.10;;
13067;SDS011;6600;51.362;6.686;2023-04-15T04:42:43;5.57;;;3.33;;
13067;SDS011;6600;51.362;6.686;2023-04-15T04:45:09;6.00;;;3.40;;
13067;SDS011;6600;51.362;6.686;2023-04-15T04:47:34;4.60;;;3.40;;
13067;SDS011;6600;51.362;6.686;2023-04-15T04:49:59;2.73;;;2.47;;
13067;SDS011;6600;51.362;6.686;2023-04-15T04:52:25;4.57;;;3.10;;
13067;SDS011;6600;51.362;6.686;2023-04-15T04:54:50;3.63;;;3.10;;
13067;SDS011;6600;51.362;6.686;2023-04-15T04:57:15;5.20;;;2.90;;
13067;SDS011;6600;51.362;6.686;2023-04-15T04:59:41;6.60;;;2.90;;
13067;SDS011;6600;51.362;6.686;2023-04-15T05:02:06;5.40;;;3.13;;
13067;SDS011;6600;51.362;6.686;2023-04-15T05:04:32;4.00;;;2.13;;
13067;SDS011;6600;51.362;6.686;2023-04-15T05:06:58;7.70;;;3.60;;
13067;SDS011;6600;51.362;6.686;2023-04-15T05:09:23;2.90;;;2.67;;
13067;SDS011;6600;51.362;6.686;2023-04-15T05:11:49;6.57;;;2.53;;
13067;SDS011;6600;51.362;6.686;2023-04-15T05:14:14;3.27;;;2.90;;
13067;SDS011;6600;51.362;6.686;2023-04-15T05:16:39;3.90;;;2.67;;
13067;SDS011;6600;51.362;6.686;2023-04-15T05:19:05;4.53;;;2.70;;
13067;SDS011;6600;51.362;6.686;2023-04-15T05:21:31;4.50;;;2.60;;
13067;SDS011;6600;51.362;6.686;2023-04-15T05:23:57;3.90;;;2.50;;
13067;SDS011;6600;51.362;6.686;2023-04-15T05:26:22;3.10;;;2.53;;
13067;SDS011;6600;51.362;6.686;2023-04-15T05:28:48;3.90;;;2.73;;
13067;SDS011;6600;51.362;6.686;2023-04-15T05:31:14;2.93;;;2.33;;
13067;SDS011;6600;51.362;6.686;2023-04-15T05:33:39;3.73;;;2.63;;
13067;SDS011;6600;51.362;6.686;2023-04-15T05:36:05;4.83;;;2.20;;
13067;SDS011;6600;51.362;6.686;2023-04-15T05:38:30;5.77;;;2.70;;
13067;SDS011;6600;51.362;6.686;2023-04-15T05:40:55;4.23;;;3.20;;
13067;SDS011;6600;51.362;6.686;2023-04-15T05:43:21;3.70;;;2.73;;
13067;SDS011;6600;51.362;6.686;2023-04-15T05:45:46;4.73;;;2.17;;
13067;SDS011;6600;51.362;6.686;2023-04-15T05:48:12;5.07;;;3.13;;
13067;SDS011;6600;51.362;6.686;2023-04-15T05:50:39;3.20;;;2.90;;
13067;SDS011;6600;51.362;6.686;2023-04-15T05:53:07;2.93;;;2.63;;
13067;SDS011;6600;51.362;6.686;2023-04-15T05:55:33;2.93;;;2.40;;
13067;SDS011;6600;51.362;6.686;2023-04-15T05:57:58;7.00;;;3.20;;
13067;SDS011;6600;51.362;6.686;2023-04-15T06:00:24;4.40;;;3.03;;
13067;SDS011;6600;51.362;6.686;2023-04-15T06:02:49;4.97;;;3.07;;
13067;SDS011;6600;51.362;6.686;2023-04-15T06:05:15;3.37;;;2.43;;
13067;SDS011;6600;51.362;6.686;2023-04-15T06:07:40;3.10;;;2.30;;
13067;SDS011;6600;51.362;6.686;2023-04-15T06:10:07;3.40;;;3.10;;
13067;SDS011;6600;51.362;6.686;2023-04-15T06:12:33;3.57;;;2.60;;
13067;SDS011;6600;51.362;6.686;2023-04-15T06:14:59;5.33;;;3.13;;
13067;SDS011;6600;51.362;6.686;2023-04-15T06:17:24;4.17;;;3.27;;
13067;SDS011;6600;51.362;6.686;2023-04-15T06:19:50;7.37;;;3.13;;
13067;SDS011;6600;51.362;6.686;2023-04-15T06:22:19;5.80;;;2.77;;
13067;SDS011;6600;51.362;6.686;2023-04-15T06:24:48;4.13;;;2.83;;
13067;SDS011;6600;51.362;6.686;2023-04-15T06:27:17;6.50;;;2.87;;
13067;SDS011;6600;51.362;6.686;2023-04-15T06:29:43;6.03;;;2.77;;
13067;SDS011;6600;51.362;6.686;2023-04-15T06:32:08;4.10;;;3.27;;
13067;SDS011;6600;51.362;6.686;2023-04-15T06:34:34;5.70;;;2.90;;
13067;SDS011;6600;51.362;6.686;2023-04-15T06:36:59;4.80;;;3.20;;
13067;SDS011;6600;51.362;6.686;2023-04-15T06:39:25;4.63;;;3.43;;
13067;SDS011;6600;51.362;6.686;2023-04-15T06:41:50;5.60;;;2.87;;
13067;SDS011;6600;51.362;6.686;2023-04-15T06:44:16;6.60;;;3.63;;
13067;SDS011;6600;51.362;6.686;2023-04-15T06:46:42;8.17;;;3.70;;
13067;SDS011;6600;51.362;6.686;2023-04-15T06:49:08;6.43;;;3.40;;
13067;SDS011;6600;51.362;6.686;2023-04-15T06:51:34;8.20;;;3.90;;
13067;SDS011;6600;51.362;6.686;2023-04-15T06:54:00;4.67;;;3.60;;
13067;SDS011;6600;51.362;6.686;2023-04-15T06:56:26;6.77;;;3.70;;
13067;SDS011;6600;51.362;6.686;2023-04-15T06:58:51;5.67;;;3.63;;
13067;SDS011;6600;51.362;6.686;2023-04-15T07:01:17;8.27;;;3.63;;
13067;SDS011;6600;51.362;6.686;2023-04-15T07:03:42;4.20;;;2.80;;
13067;SDS011;6600;51.362;6.686;2023-04-15T07:06:08;5.97;;;2.77;;
13067;SDS011;6600;51.362;6.686;2023-04-15T07:08:33;7.37;;;3.17;;
13067;SDS011;6600;51.362;6.686;2023-04-15T07:10:59;7.77;;;3.00;;
13067;SDS011;6600;51.362;6.686;2023-04-15T07:13:25;6.47;;;3.63;;
13067;SDS011;6600;51.362;6.686;2023-04-15T07:15:51;4.70;;;3.30;;
13067;SDS011;6600;51.362;6.686;2023-04-15T07:18:16;5.10;;;2.77;;
13067;SDS011;6600;51.362;6.686;2023-04-15T07:20:41;6.07;;;3.40;;
13067;SDS011;6600;51.362;6.686;2023-04-15T07:23:06;6.47;;;3.10;;
13067;SDS011;6600;51.362;6.686;2023-04-15T07:25:32;5.53;;;3.57;;
13067;SDS011;6600;51.362;6.686;2023-04-15T07:27:57;6.10;;;3.00;;
13067;SDS011;6600;51.362;6.686;2023-04-15T07:30:23;4.40;;;3.33;;
13067;SDS011;6600;51.362;6.686;2023-04-15T07:32:48;7.03;;;3.10;;
13067;SDS011;6600;51.362;6.686;2023-04-15T07:35:13;3.90;;;2.67;;
13067;SDS011;6600;51.362;6.686;2023-04-15T07:37:39;5.60;;;3.03;;
13067;SDS011;6600;51.362;6.686;2023-04-15T07:40:04;5.73;;;2.87;;
13067;SDS011;6600;51.362;6.686;2023-04-15T07:42:31;3.47;;;2.10;;
13067;SDS011;6600;51.362;6.686;2023-04-15T07:44:58;3.07;;;2.17;;
13067;SDS011;6600;51.362;6.686;2023-04-15T07:47:23;3.33;;;2.23;;
13067;SDS011;6600;51.362;6.686;2023-04-15T07:49:48;3.47;;;1.63;;
13067;SDS011;6600;51.362;6.686;2023-04-15T07:52:15;3.43;;;2.37;;
13067;SDS011;6600;51.362;6.686;2023-04-15T07:54:40;2.87;;;2.13;;
13067;SDS011;6600;51.362;6.686;2023-04-15T07:57:06;2.90;;;2.50;;
13067;SDS011;6600;51.362;6.686;2023-04-15T07:59:31;2.73;;;2.07;;
13067;SDS011;6600;51.362;6.686;2023-04-15T08:01:57;3.90;;;2.70;;
13067;SDS011;6600;51.362;6.686;2023-04-15T08:04:23;2.97;;;2.40;;
13067;SDS011;6600;51.362;6.686;2023-04-15T08:06:49;3.63;;;2.33;;
13067;SDS011;6600;51.362;6.686;2023-04-15T08:09:14;3.77;;;2.43;;
13067;SDS011;6600;51.362;6.686;2023-04-15T08:11:40;3.63;;;2.10;;
13067;SDS011;6600;51.362;6.686;2023-04-15T08:14:06;5.13;;;2.80;;
13067;SDS011;6600;51.362;6.686;2023-04-15T08:16:31;2.97;;;1.90;;
13067;SDS011;6600;51.362;6.686;2023-04-15T08:18:57;4.63;;;2.00;;
13067;SDS011;6600;51.362;6.686;2023-04-15T08:21:22;4.47;;;2.30;;
13067;SDS011;6600;51.362;6.686;2023-04-15T08:23:48;1.97;;;1.13;;
13067;SDS011;6600;51.362;6.686;2023-04-15T08:26:15;1.87;;;1.53;;
13067;SDS011;6600;51.362;6.686;2023-04-15T08:28:41;2.00;;;1.70;;
13067;SDS011;6600;51.362;6.686;2023-04-15T08:31:08;1.90;;;1.50;;
13067;SDS011;6600;51.362;6.686;2023-04-15T08:33:33;2.93;;;1.37;;
13067;SDS011;6600;51.362;6.686;2023-04-15T08:35:59;3.87;;;1.83;;
13067;SDS011;6600;51.362;6.686;2023-04-15T08:38:24;1.63;;;1.47;;
13067;SDS011;6600;51.362;6.686;2023-04-15T08:40:50;2.00;;;1.50;;
13067;SDS011;6600;51.362;6.686;2023-04-15T08:43:22;2.23;;;1.63;;
13067;SDS011;6600;51.362;6.686;2023-04-15T08:45:52;2.10;;;1.40;;
13067;SDS011;6600;51.362;6.686;2023-04-15T08:48:19;1.53;;;1.20;;
13067;SDS011;6600;51.362;6.686;2023-04-15T08:50:46;2.37;;;1.30;;
13067;SDS011;6600;51.362;6.686;2023-04-15T08:53:12;2.30;;;1.37;;
13067;SDS011;6600;51.362;6.686;2023-04-15T08:55:41;1.50;;;1.40;;
13067;SDS011;6600;51.362;6.686;2023-04-15T08:58:11;1.47;;;1.10;;
13067;SDS011;6600;51.362;6.686;2023-04-15T09:00:38;1.17;;;1.07;;
13067;SDS011;6600;51.362;6.686;2023-04-15T09:03:05;2.10;;;1.37;;
13067;SDS011;6600;51.362;6.686;2023-04-15T09:05:31;1.90;;;1.57;;
13067;SDS011;6600;51.362;6.686;2023-04-15T09:07:57;1.60;;;1.00;;
13067;SDS011;6600;51.362;6.686;2023-04-15T09:10:23;0.77;;;0.77;;
13067;SDS011;6600;51.362;6.686;2023-04-15T09:12:48;2.10;;;1.37;;
13067;SDS011;6600;51.362;6.686;2023-04-15T09:15:14;1.23;;;1.13;;
13067;SDS011;6600;51.362;6.686;2023-04-15T09:17:43;2.20;;;1.13;;
13067;SDS011;6600;51.362;6.686;2023-04-15T09:20:10;0.90;;;0.90;;
13067;SDS011;6600;51.362;6.686;2023-04-15T09:22:37;1.50;;;1.40;;
13067;SDS011;6600;51.362;6.686;2023-04-15T09:25:24;1.17;;;1.00;;
13067;SDS011;6600;51.362;6.686;2023-04-15T09:27:56;1.83;;;1.53;;
13067;SDS011;6600;51.362;6.686;2023-04-15T09:30:23;2.10;;;1.50;;
13067;SDS011;6600;51.362;6.686;2023-04-15T09:35:19;1.13;;;1.03;;
13067;SDS011;6600;51.362;6.686;2023-04-15T09:37:45;2.27;;;1.50;;
13067;SDS011;6600;51.362;6.686;2023-04-15T09:40:11;1.70;;;1.30;;
13067;SDS011;6600;51.362;6.686;2023-04-15T09:42:42;2.97;;;1.13;;
13067;SDS011;6600;51.362;6.686;2023-04-15T09:45:18;2.03;;;1.33;;
13067;SDS011;6600;51.362;6.686;2023-04-15T09:47:44;2.50;;;1.30;;
13067;SDS011;6600;51.362;6.686;2023-04-15T09:50:09;1.60;;;1.50;;
13067;SDS011;6600;51.362;6.686;2023-04-15T09:52:39;4.00;;;1.70;;
13067;SDS011;6600;51.362;6.686;2023-04-15T09:55:07;3.03;;;1.57;;
13067;SDS011;6600;51.362;6.686;2023-04-15T09:57:33;1.83;;;1.50;;
13067;SDS011;6600;51.362;6.686;2023-04-15T10:00:01;1.77;;;1.20;;
13067;SDS011;6600;51.362;6.686;2023-04-15T10:02:30;1.97;;;1.37;;
13067;SDS011;6600;51.362;6.686;2023-04-15T10:04:56;2.17;;;1.70;;
13067;SDS011;6600;51.362;6.686;2023-04-15T10:07:22;2.43;;;1.97;;
13067;SDS011;6600;51.362;6.686;2023-04-15T10:09:48;2.53;;;1.87;;
13067;SDS011;6600;51.362;6.686;2023-04-15T10:12:14;2.00;;;1.90;;
13067;SDS011;6600;51.362;6.686;2023-04-15T10:14:41;2.20;;;1.63;;
13067;SDS011;6600;51.362;6.686;2023-04-15T10:17:09;2.20;;;2.00;;
13067;SDS011;6600;51.362;6.686;2023-04-15T10:19:36;2.53;;;2.00;;
13067;SDS011;6600;51.362;6.686;2023-04-15T10:22:02;1.83;;;1.63;;
13067;SDS011;6600;51.362;6.686;2023-04-15T10:24:31;2.10;;;1.37;;
13067;SDS011;6600;51.362;6.686;2023-04-15T10:26:57;1.70;;;1.60;;
13067;SDS011;6600;51.362;6.686;2023-04-15T10:29:24;1.57;;;1.47;;
13067;SDS011;6600;51.362;6.686;2023-04-15T10:31:53;2.53;;;2.33;;
13067;SDS011;6600;51.362;6.686;2023-04-15T10:34:20;2.67;;;2.10;;
13067;SDS011;6600;51.362;6.686;2023-04-15T10:36:48;1.57;;;1.43;;
13067;SDS011;6600;51.362;6.686;2023-04-15T10:42:11;1.93;;;1.77;;
13067;SDS011;6600;51.362;6.686;2023-04-15T10:44:41;2.23;;;2.00;;
13067;SDS011;6600;51.362;6.686;2023-04-15T10:47:11;2.17;;;1.80;;
13067;SDS011;6600;51.362;6.686;2023-04-15T10:49:41;3.20;;;1.63;;
13067;SDS011;6600;51.362;6.686;2023-04-15T10:52:09;2.37;;;2.03;;
13067;SDS011;6600;51.362;6.686;2023-04-15T10:54:35;1.67;;;1.30;;
13067;SDS011;6600;51.362;6.686;2023-04-15T10:59:28;2.77;;;2.10;;
13067;SDS011;6600;51.362;6.686;2023-04-15T11:01:55;2.07;;;1.87;;
13067;SDS011;6600;51.362;6.686;2023-04-15T11:07:38;2.47;;;1.60;;
13067;SDS011;6600;51.362;6.686;2023-04-15T11:12:50;1.80;;;1.30;;
13067;SDS011;6600;51.362;6.686;2023-04-15T11:21:03;1.53;;;1.40;;
13067;SDS011;6600;51.362;6.686;2023-04-15T11:23:40;2.03;;;1.40;;
13067;SDS011;6600;51.362;6.686;2023-04-15T11:26:11;2.27;;;1.70;;
13067;SDS011;6600;51.362;6.686;2023-04-15T11:28:38;2.60;;;1.93;;
13067;SDS011;6600;51.362;6.686;2023-04-15T11:31:05;1.73;;;1.63;;
13067;SDS011;6600;51.362;6.686;2023-04-15T11:33:32;1.50;;;1.40;;
13067;SDS011;6600;51.362;6.686;2023-04-15T11:35:58;1.90;;;1.50;;
13067;SDS011;6600;51.362;6.686;2023-04-15T11:38:25;2.20;;;1.73;;
13067;SDS011;6600;51.362;6.686;2023-04-15T11:40:51;2.03;;;1.70;;
13067;SDS011;6600;51.362;6.686;2023-04-15T11:45:48;2.10;;;1.37;;
13067;SDS011;6600;51.362;6.686;2023-04-15T11:48:13;1.77;;;1.40;;
13067;SDS011;6600;51.362;6.686;2023-04-15T11:50:39;2.27;;;1.30;;
13067;SDS011;6600;51.362;6.686;2023-04-15T11:53:05;1.50;;;1.40;;
13067;SDS011;6600;51.362;6.686;2023-04-15T11:55:45;2.40;;;1.60;;
13067;SDS011;6600;51.362;6.686;2023-04-15T12:01:15;1.53;;;1.43;;
13067;SDS011;6600;51.362;6.686;2023-04-15T12:03:44;2.57;;;1.57;;
13067;SDS011;6600;51.362;6.686;2023-04-15T12:06:14;4.63;;;1.80;;
13067;SDS011;6600;51.362;6.686;2023-04-15T12:19:10;1.90;;;1.60;;
13067;SDS011;6600;51.362;6.686;2023-04-15T12:21:41;1.23;;;1.13;;
13067;SDS011;6600;51.362;6.686;2023-04-15T12:24:09;2.57;;;1.57;;
13067;SDS011;6600;51.362;6.686;2023-04-15T12:29:07;1.97;;;1.70;;
13067;SDS011;6600;51.362;6.686;2023-04-15T12:31:33;1.07;;;0.93;;
13067;SDS011;6600;51.362;6.686;2023-04-15T12:34:00;1.50;;;1.40;;
13067;SDS011;6600;51.362;6.686;2023-04-15T12:36:27;2.63;;;1.30;;
13067;SDS011;6600;51.362;6.686;2023-04-15T12:38:55;1.80;;;1.20;;
13067;SDS011;6600;51.362;6.686;2023-04-15T12:41:21;1.40;;;1.17;;
13067;SDS011;6600;51.362;6.686;2023-04-15T12:43:48;1.20;;;1.00;;
13067;SDS011;6600;51.362;6.686;2023-04-15T12:46:13;1.47;;;1.10;;
13067;SDS011;6600;51.362;6.686;2023-04-15T12:48:39;2.27;;;1.30;;
13067;SDS011;6600;51.362;6.686;2023-04-15T12:51:05;1.57;;;1.30;;
13067;SDS011;6600;51.362;6.686;2023-04-15T12:53:30;1.43;;;1.13;;
13067;SDS011;6600;51.362;6.686;2023-04-15T12:55:56;0.80;;;0.80;;
13067;SDS011;6600;51.362;6.686;2023-04-15T12:58:21;1.37;;;1.10;;
13067;SDS011;6600;51.362;6.686;2023-04-15T13:00:47;1.27;;;1.10;;
13067;SDS011;6600;51.362;6.686;2023-04-15T13:03:13;1.50;;;1.07;;
13067;SDS011;6600;51.362;6.686;2023-04-15T13:05:38;1.80;;;1.37;;
13067;SDS011;6600;51.362;6.686;2023-04-15T13:08:04;1.30;;;1.20;;
13067;SDS011;6600;51.362;6.686;2023-04-15T13:10:30;1.67;;;1.57;;
13067;SDS011;6600;51.362;6.686;2023-04-15T13:12:56;3.20;;;1.53;;
13067;SDS011;6600;51.362;6.686;2023-04-15T13:15:21;2.73;;;1.50;;
13067;SDS011;6600;51.362;6.686;2023-04-15T13:17:47;1.30;;;1.17;;
13067;SDS011;6600;51.362;6.686;2023-04-15T13:20:13;1.70;;;1.60;;
13067;SDS011;6600;51.362;6.686;2023-04-15T13:22:39;1.40;;;1.30;;
13067;SDS011;6600;51.362;6.686;2023-04-15T13:25:05;1.40;;;1.30;;
13067;SDS011;6600;51.362;6.686;2023-04-15T13:27:31;2.43;;;1.90;;
13067;SDS011;6600;51.362;6.686;2023-04-15T13:29:56;1.67;;;1.10;;
13067;SDS011;6600;51.362;6.686;2023-04-15T13:32:21;1.27;;;1.10;;
13067;SDS011;6600;51.362;6.686;2023-04-15T13:34:47;1.50;;;1.40;;
13067;SDS011;6600;51.362;6.686;2023-04-15T13:37:12;1.37;;;1.27;;
13067;SDS011;6600;51.362;6.686;2023-04-15T13:39:37;2.03;;;1.10;;
13067;SDS011;6600;51.362;6.686;2023-04-15T13:42:03;2.03;;;1.20;;
13067;SDS011;6600;51.362;6.686;2023-04-15T13:44:28;1.20;;;1.10;;
13067;SDS011;6600;51.362;6.686;2023-04-15T13:46:53;2.23;;;1.10;;
13067;SDS011;6600;51.362;6.686;2023-04-15T13:49:19;0.93;;;0.93;;
13067;SDS011;6600;51.362;6.686;2023-04-15T13:51:45;1.20;;;1.10;;
13067;SDS011;6600;51.362;6.686;2023-04-15T13:54:10;1.20;;;1.10;;
13067;SDS011;6600;51.362;6.686;2023-04-15T13:56:35;1.20;;;0.90;;
13067;SDS011;6600;51.362;6.686;2023-04-15T13:59:01;1.30;;;1.17;;
13067;SDS011;6600;51.362;6.686;2023-04-15T14:01:27;1.47;;;1.00;;
13067;SDS011;6600;51.362;6.686;2023-04-15T14:03:53;2.50;;;1.10;;
13067;SDS011;6600;51.362;6.686;2023-04-15T14:06:18;1.33;;;1.13;;
13067;SDS011;6600;51.362;6.686;2023-04-15T14:08:44;0.80;;;0.80;;
13067;SDS011;6600;51.362;6.686;2023-04-15T14:11:09;2.17;;;1.00;;
13067;SDS011;6600;51.362;6.686;2023-04-15T14:13:35;4.10;;;1.60;;
13067;SDS011;6600;51.362;6.686;2023-04-15T14:16:00;0.80;;;0.80;;
13067;SDS011;6600;51.362;6.686;2023-04-15T14:18:26;1.60;;;1.00;;
13067;SDS011;6600;51.362;6.686;2023-04-15T14:20:51;2.07;;;1.27;;
13067;SDS011;6600;51.362;6.686;2023-04-15T14:23:17;1.77;;;1.27;;
13067;SDS011;6600;51.362;6.686;2023-04-15T14:25:42;1.70;;;1.20;;
13067;SDS011;6600;51.362;6.686;2023-04-15T14:28:08;0.90;;;0.80;;
13067;SDS011;6600;51.362;6.686;2023-04-15T14:30:33;0.77;;;0.77;;
13067;SDS011;6600;51.362;6.686;2023-04-15T14:32:58;2.57;;;0.90;;
13067;SDS011;6600;51.362;6.686;2023-04-15T14:35:24;0.83;;;0.80;;
13067;SDS011;6600;51.362;6.686;2023-04-15T14:37:51;1.10;;;1.00;;
13067;SDS011;6600;51.362;6.686;2023-04-15T14:40:17;1.13;;;0.87;;
13067;SDS011;6600;51.362;6.686;2023-04-15T14:42:43;0.90;;;0.80;;
13067;SDS011;6600;51.362;6.686;2023-04-15T14:45:08;0.90;;;0.80;;
13067;SDS011;6600;51.362;6.686;2023-04-15T14:47:34;1.27;;;1.00;;
13067;SDS011;6600;51.362;6.686;2023-04-15T14:49:59;2.13;;;1.13;;
13067;SDS011;6600;51.362;6.686;2023-04-15T14:52:25;1.77;;;1.23;;
13067;SDS011;6600;51.362;6.686;2023-04-15T14:54:50;1.03;;;0.77;;
13067;SDS011;6600;51.362;6.686;2023-04-15T14:57:15;1.13;;;1.03;;
13067;SDS011;6600;51.362;6.686;2023-04-15T14:59:41;1.63;;;1.10;;
13067;SDS011;6600;51.362;6.686;2023-04-15T15:02:06;1.47;;;1.10;;
13067;SDS011;6600;51.362;6.686;2023-04-15T15:04:33;0.80;;;0.80;;
13067;SDS011;6600;51.362;6.686;2023-04-15T15:06:59;1.03;;;0.97;;
13067;SDS011;6600;51.362;6.686;2023-04-15T15:09:25;1.47;;;0.90;;
13067;SDS011;6600;51.362;6.686;2023-04-15T15:11:51;1.53;;;0.90;;
13067;SDS011;6600;51.362;6.686;2023-04-15T15:14:16;2.00;;;1.07;;
13067;SDS011;6600;51.362;6.686;2023-04-15T15:16:41;1.40;;;0.60;;
13067;SDS011;6600;51.362;6.686;2023-04-15T15:19:07;0.70;;;0.70;;
13067;SDS011;6600;51.362;6.686;2023-04-15T15:21:33;1.60;;;0.70;;
13067;SDS011;6600;51.362;6.686;2023-04-15T15:23:58;0.90;;;0.80;;
13067;SDS011;6600;51.362;6.686;2023-04-15T15:26:24;0.80;;;0.80;;
13067;SDS011;6600;51.362;6.686;2023-04-15T15:28:52;0.93;;;0.77;;
13067;SDS011;6600;51.362;6.686;2023-04-15T15:31:17;1.07;;;0.87;;